Map

Track Data

SID SEASON NUMBER BASIN SUBBASIN NAME ISO_TIME NATURE LAT LON WMO_WIND WMO_PRES WMO_AGENCY TRACK_TYPE DIST2LAND LANDFALL IFLAG USA_AGENCY USA_ATCF_ID USA_LAT USA_LON USA_RECORD USA_STATUS USA_WIND USA_PRES USA_SSHS USA_R34_NE USA_R34_SE USA_R34_SW USA_R34_NW USA_R50_NE USA_R50_SE USA_R50_SW USA_R50_NW USA_R64_NE USA_R64_SE USA_R64_SW USA_R64_NW USA_POCI USA_ROCI USA_RMW USA_EYE TOKYO_LAT TOKYO_LON TOKYO_GRADE TOKYO_WIND TOKYO_PRES TOKYO_R50_DIR TOKYO_R50_LONG TOKYO_R50_SHORT TOKYO_R30_DIR TOKYO_R30_LONG TOKYO_R30_SHORT TOKYO_LAND CMA_LAT CMA_LON CMA_CAT CMA_WIND CMA_PRES HKO_LAT HKO_LON HKO_CAT HKO_WIND HKO_PRES NEWDELHI_LAT NEWDELHI_LON NEWDELHI_GRADE NEWDELHI_WIND NEWDELHI_PRES NEWDELHI_CI NEWDELHI_DP NEWDELHI_POCI REUNION_LAT REUNION_LON REUNION_TYPE REUNION_WIND REUNION_PRES REUNION_TNUM REUNION_CI REUNION_RMW REUNION_R34_NE REUNION_R34_SE REUNION_R34_SW REUNION_R34_NW REUNION_R50_NE REUNION_R50_SE REUNION_R50_SW REUNION_R50_NW REUNION_R64_NE REUNION_R64_SE REUNION_R64_SW REUNION_R64_NW BOM_LAT BOM_LON BOM_TYPE BOM_WIND BOM_PRES BOM_TNUM BOM_CI BOM_RMW BOM_R34_NE BOM_R34_SE BOM_R34_SW BOM_R34_NW BOM_R50_NE BOM_R50_SE BOM_R50_SW BOM_R50_NW BOM_R64_NE BOM_R64_SE BOM_R64_SW BOM_R64_NW BOM_ROCI BOM_POCI BOM_EYE BOM_POS_METHOD BOM_PRES_METHOD NADI_LAT NADI_LON NADI_CAT NADI_WIND NADI_PRES WELLINGTON_LAT WELLINGTON_LON WELLINGTON_WIND WELLINGTON_PRES DS824_LAT DS824_LON DS824_STAGE DS824_WIND DS824_PRES TD9636_LAT TD9636_LON TD9636_STAGE TD9636_WIND TD9636_PRES TD9635_LAT TD9635_LON TD9635_WIND TD9635_PRES TD9635_ROCI NEUMANN_LAT NEUMANN_LON NEUMANN_CLASS NEUMANN_WIND NEUMANN_PRES MLC_LAT MLC_LON MLC_CLASS MLC_WIND MLC_PRES USA_GUST BOM_GUST BOM_GUST_PER REUNION_GUST REUNION_GUST_PER USA_SEAHGT USA_SEARAD_NE USA_SEARAD_SE USA_SEARAD_SW USA_SEARAD_NW STORM_SPEED STORM_DIR
1924348N07139 1924 55 WP MM NOT_NAMED 1924-12-13 10:00:00 NR 7.00000 139.100 main 943 939 __________O___ -1 7.00000 139.100 7 16 302
1924348N07139 1924 55 WP MM NOT_NAMED 1924-12-13 12:00:00 NR 7.27507 138.649 main 955 952 __________P___ -1 7.27507 138.649 7 16 301
1924348N07139 1924 55 WP MM NOT_NAMED 1924-12-13 15:00:00 NR 7.67166 137.979 main 978 975 __________P___ -1 7.67166 137.979 7 15 300
1924348N07139 1924 55 WP MM NOT_NAMED 1924-12-13 18:00:00 NR 8.02801 137.326 main 992 992 __________P___ -1 8.02801 137.326 7 14 297
1924348N07139 1924 55 WP MM NOT_NAMED 1924-12-13 21:00:00 NR 8.32065 136.700 main 1015 1014 __________P___ -1 8.32065 136.700 7 14 295
1924348N07139 1924 55 WP MM NOT_NAMED 1924-12-13 22:00:00 NR 8.40000 136.500 main 1024 1023 __________O___ -1 8.40000 136.500 7 12 290
1924348N07139 1924 55 WP MM NOT_NAMED 1924-12-14 00:00:00 NR 8.52864 136.113 main 1032 996 __________P___ -1 8.52864 136.113 7 12 286
1924348N07139 1924 55 WP MM NOT_NAMED 1924-12-14 03:00:00 NR 8.65890 135.557 main 997 932 __________P___ -1 8.65890 135.557 7 11 281
1924348N07139 1924 55 WP MM NOT_NAMED 1924-12-14 06:00:00 NR 8.73621 135.019 main 932 878 __________P___ -1 8.73621 135.019 7 11 277
1924348N07139 1924 55 WP MM NOT_NAMED 1924-12-14 09:00:00 NR 8.78550 134.482 main 878 856 __________P___ -1 8.78550 134.482 7 11 275
1924348N07139 1924 55 WP MM NOT_NAMED 1924-12-14 10:00:00 NR 8.80000 134.300 main 856 813 __________O___ -1 8.80000 134.300 7 11 276
1924348N07139 1924 55 WP MM NOT_NAMED 1924-12-14 12:00:00 NR 8.84188 133.930 main 813 760 __________P___ -1 8.84188 133.930 7 11 276
1924348N07139 1924 55 WP MM NOT_NAMED 1924-12-14 15:00:00 NR 8.89217 133.369 main 760 695 __________P___ -1 8.89217 133.369 7 11 275
1924348N07139 1924 55 WP MM NOT_NAMED 1924-12-14 18:00:00 NR 8.93583 132.796 main 695 633 __________P___ -1 8.93583 132.796 7 12 274
1924348N07139 1924 55 WP MM NOT_NAMED 1924-12-14 21:00:00 NR 8.98228 132.203 main 633 612 __________P___ -1 8.98228 132.203 7 12 275
1924348N07139 1924 55 WP MM NOT_NAMED 1924-12-14 22:00:00 NR 9.00000 132.000 main 612 569 __________O___ -1 9.00000 132.000 7 13 272
1924348N07139 1924 55 WP MM NOT_NAMED 1924-12-15 00:00:00 NR 9.00780 131.552 main 569 495 __________P___ -1 9.00780 131.552 7 14 271
1924348N07139 1924 55 WP MM NOT_NAMED 1924-12-15 03:00:00 NR 9.02496 130.861 main 495 426 __________P___ -1 9.02496 130.861 7 14 273
1924348N07139 1924 55 WP MM NOT_NAMED 1924-12-15 06:00:00 NR 9.08448 130.188 main 426 365 __________P___ -1 9.08448 130.188 7 13 279
1924348N07139 1924 55 WP MM NOT_NAMED 1924-12-15 09:00:00 NR 9.22699 129.580 main 365 345 __________P___ -1 9.22699 129.580 7 12 285
1924348N07139 1924 55 WP MM NOT_NAMED 1924-12-15 10:00:00 NR 9.30000 129.400 main 345 317 __________O___ -1 9.30000 129.400 7 12 302
1924348N07139 1924 55 WP MM NOT_NAMED 1924-12-15 12:00:00 NR 9.54764 129.062 main 317 278 __________P___ -1 9.54764 129.062 7 13 313
1924348N07139 1924 55 WP MM NOT_NAMED 1924-12-15 15:00:00 NR 10.0088 128.630 main 278 266 __________P___ -1 10.0088 128.630 7 12 321
1924348N07139 1924 55 WP MM NOT_NAMED 1924-12-15 18:00:00 NR 10.4913 128.292 main 272 251 __________P___ -1 10.4913 128.292 7 11 328
1924348N07139 1924 55 WP MM NOT_NAMED 1924-12-15 21:00:00 NR 10.8980 128.055 main 251 240 __________P___ -1 10.8980 128.055 7 9 331
1924348N07139 1924 55 WP MM NOT_NAMED 1924-12-15 22:00:00 NR 11.0000 128.000 main 240 229 __________O___ -1 11.0000 128.000 7 5 327
1924348N07139 1924 55 WP MM NOT_NAMED 1924-12-16 00:00:00 NR 11.0969 127.920 main 229 229 __________P___ -1 11.0969 127.920 7 2 320
1924348N07139 1924 55 WP MM NOT_NAMED 1924-12-16 03:00:00 NR 11.1351 127.888 main 229 229 __________P___ -1 11.1351 127.888 7 0 0
1924348N07139 1924 55 WP MM NOT_NAMED 1924-12-16 06:00:00 NR 11.0921 127.924 main 229 229 __________P___ -1 11.0921 127.924 7 1 141
1924348N07139 1924 55 WP MM NOT_NAMED 1924-12-16 09:00:00 NR 11.0209 127.983 main 240 240 __________P___ -1 11.0209 127.983 7 2 141
1924348N07139 1924 55 WP MM NOT_NAMED 1924-12-16 10:00:00 NR 11.0000 128.000 main 240 240 __________O___ -1 11.0000 128.000 7 1 0
1924348N07139 1924 55 WP MM NOT_NAMED 1924-12-16 12:00:00 NR 11.0000 128.000 main 240 240 __________P___ -1 11.0000 128.000 7 0 0
1924348N07139 1924 55 WP MM NOT_NAMED 1924-12-16 15:00:00 NR 11.0000 128.000 main 240 240 __________P___ -1 11.0000 128.000 7 0 0
1924348N07139 1924 55 WP MM NOT_NAMED 1924-12-16 18:00:00 NR 11.0000 128.000 main 240 240 __________P___ -1 11.0000 128.000 7 0 0
1924348N07139 1924 55 WP MM NOT_NAMED 1924-12-16 21:00:00 NR 11.0000 128.000 main 240 240 __________P___ -1 11.0000 128.000 7 0 0
1924348N07139 1924 55 WP MM NOT_NAMED 1924-12-16 22:00:00 NR 11.0000 128.000 main 240 240 __________O___ -1 11.0000 128.000 7 0 0
1924348N07139 1924 55 WP MM NOT_NAMED 1924-12-17 00:00:00 NR 11.0000 128.000 main 240 240 __________P___ -1 11.0000 128.000 7 0 0
1924348N07139 1924 55 WP MM NOT_NAMED 1924-12-17 03:00:00 NR 11.0000 128.000 main 240 240 __________P___ -1 11.0000 128.000 7 0 0
1924348N07139 1924 55 WP MM NOT_NAMED 1924-12-17 06:00:00 NR 11.0000 128.000 main 240 240 __________P___ -1 11.0000 128.000 7 0 0
1924348N07139 1924 55 WP MM NOT_NAMED 1924-12-17 09:00:00 NR 11.0000 128.000 main 240 240 __________P___ -1 11.0000 128.000 7 0 0
1924348N07139 1924 55 WP MM NOT_NAMED 1924-12-17 10:00:00 NR 11.0000 128.000 main 240 240 __________O___ -1 11.0000 128.000 7 0 0
1924348N07139 1924 55 WP MM NOT_NAMED 1924-12-17 12:00:00 NR 11.0000 128.000 main 240 240 __________P___ -1 11.0000 128.000 7 0 0
1924348N07139 1924 55 WP MM NOT_NAMED 1924-12-17 15:00:00 NR 11.0000 128.000 main 240 240 __________P___ -1 11.0000 128.000 7 0 0
1924348N07139 1924 55 WP MM NOT_NAMED 1924-12-17 18:00:00 NR 11.0000 128.000 main 240 240 __________P___ -1 11.0000 128.000 7 0 0
1924348N07139 1924 55 WP MM NOT_NAMED 1924-12-17 21:00:00 NR 11.0000 128.000 main 240 240 __________P___ -1 11.0000 128.000 7 0 0
1924348N07139 1924 55 WP MM NOT_NAMED 1924-12-17 22:00:00 NR 11.0000 128.000 main 240 240 __________O___ -1 11.0000 128.000 7 0 0
1924348N07139 1924 55 WP MM NOT_NAMED 1924-12-18 00:00:00 NR 11.0000 128.000 main 240 240 __________P___ -1 11.0000 128.000 7 0 0
1924348N07139 1924 55 WP MM NOT_NAMED 1924-12-18 03:00:00 NR 11.0000 128.000 main 240 240 __________P___ -1 11.0000 128.000 7 0 0
1924348N07139 1924 55 WP MM NOT_NAMED 1924-12-18 06:00:00 NR 11.0000 128.000 main 240 240 __________P___ -1 11.0000 128.000 7 0 0
1924348N07139 1924 55 WP MM NOT_NAMED 1924-12-18 09:00:00 NR 11.0000 128.000 main 240 240 __________P___ -1 11.0000 128.000 7 0 0
1924348N07139 1924 55 WP MM NOT_NAMED 1924-12-18 10:00:00 NR 11.0000 128.000 main 240 240 __________O___ -1 11.0000 128.000 7 1 106
1924348N07139 1924 55 WP MM NOT_NAMED 1924-12-18 12:00:00 NR 10.9894 128.039 main 240 240 __________P___ -1 10.9894 128.039 7 1 106
1924348N07139 1924 55 WP MM NOT_NAMED 1924-12-18 15:00:00 NR 10.9733 128.099 main 251 251 __________P___ -1 10.9733 128.099 7 1 106
1924348N07139 1924 55 WP MM NOT_NAMED 1924-12-18 18:00:00 NR 10.9681 128.118 main 251 251 __________P___ -1 10.9681 128.118 7 0 289
1924348N07139 1924 55 WP MM NOT_NAMED 1924-12-18 21:00:00 NR 10.9865 128.050 main 251 240 __________P___ -1 10.9865 128.050 7 2 285
1924348N07139 1924 55 WP MM NOT_NAMED 1924-12-18 22:00:00 NR 11.0000 128.000 main 240 218 __________O___ -1 11.0000 128.000 2 4 286
1924348N07139 1924 55 WP MM NOT_NAMED 1924-12-19 00:00:00 NR 11.0466 127.833 main 218 186 __________P___ -1 11.0466 127.833 2 6 286
1924348N07139 1924 55 WP MM NOT_NAMED 1924-12-19 03:00:00 NR 11.1418 127.488 main 186 143 __________P___ -1 11.1418 127.488 2 8 285
1924348N07139 1924 55 WP MM NOT_NAMED 1924-12-19 06:00:00 NR 11.2532 127.074 main 145 98 __________P___ -1 11.2532 127.074 2 9 285
1924348N07139 1924 55 WP MM NOT_NAMED 1924-12-19 09:00:00 NR 11.3652 126.640 main 98 88 __________P___ -1 11.3652 126.640 2 9 285
1924348N07139 1924 55 WP MM NOT_NAMED 1924-12-19 10:00:00 NR 11.4000 126.500 main 88 70 __________O___ -1 11.4000 126.500 2 8 284
1924348N07139 1924 55 WP MM NOT_NAMED 1924-12-19 12:00:00 NR 11.4555 126.266 main 77 34 __________P___ -1 11.4555 126.266 2 7 283
1924348N07139 1924 55 WP MM NOT_NAMED 1924-12-19 15:00:00 NR 11.5326 125.922 main 34 15 __________P___ -1 11.5326 125.922 2 7 283
1924348N07139 1924 55 WP MM NOT_NAMED 1924-12-19 18:00:00 NR 11.6051 125.577 main 15 0 __________P___ -1 11.6051 125.577 2 7 282
1924348N07139 1924 55 WP MM NOT_NAMED 1924-12-19 21:00:00 NR 11.6761 125.222 main 0 0 __________P___ -1 11.6761 125.222 2 7 281
1924348N07139 1924 55 WP MM NOT_NAMED 1924-12-19 22:00:00 NR 11.7000 125.100 main 0 0 __________O___ -1 11.7000 125.100 2 8 281
1924348N07139 1924 55 WP MM NOT_NAMED 1924-12-20 00:00:00 NR 11.7500 124.839 main 10 10 __________P___ -1 11.7500 124.839 2 8 281
1924348N07139 1924 55 WP MM NOT_NAMED 1924-12-20 03:00:00 NR 11.8250 124.436 main 33 0 __________P___ -1 11.8250 124.436 2 8 281
1924348N07139 1924 55 WP MM NOT_NAMED 1924-12-20 06:00:00 NR 11.9000 124.028 main 0 0 __________P___ -1 11.9000 124.028 2 8 281
1924348N07139 1924 55 WP MM NOT_NAMED 1924-12-20 09:00:00 NR 11.9750 123.629 main 11 11 __________P___ -1 11.9750 123.629 2 8 281
1924348N07139 1924 55 WP MM NOT_NAMED 1924-12-20 10:00:00 NR 12.0000 123.500 main 15 0 __________O___ -1 12.0000 123.500 2 7 282
1924348N07139 1924 55 WP MM NOT_NAMED 1924-12-20 12:00:00 NR 12.0524 123.260 main 0 10 __________P___ -1 12.0524 123.260 2 7 283
1924348N07139 1924 55 WP MM NOT_NAMED 1924-12-20 15:00:00 NR 12.1312 122.914 main 34 34 __________P___ -1 12.1312 122.914 2 7 283
1924348N07139 1924 55 WP MM NOT_NAMED 1924-12-20 18:00:00 NR 12.2075 122.572 main 60 49 __________P___ -1 12.2075 122.572 2 7 282
1924348N07139 1924 55 WP MM NOT_NAMED 1924-12-20 21:00:00 NR 12.2782 122.221 main 55 55 __________P___ -1 12.2782 122.221 2 7 281
1924348N07139 1924 55 WP MM NOT_NAMED 1924-12-20 22:00:00 NR 12.3000 122.100 main 55 40 __________O___ -1 12.3000 122.100 2 8 280
1924348N07139 1924 55 WP MM NOT_NAMED 1924-12-21 00:00:00 NR 12.3417 121.839 main 40 0 __________P___ -1 12.3417 121.839 2 8 279
1924348N07139 1924 55 WP MM NOT_NAMED 1924-12-21 03:00:00 NR 12.3979 121.436 main 0 0 __________P___ -1 12.3979 121.436 2 8 278
1924348N07139 1924 55 WP MM NOT_NAMED 1924-12-21 06:00:00 NR 12.4467 121.028 main 0 0 __________P___ -1 12.4467 121.028 2 8 277
1924348N07139 1924 55 WP MM NOT_NAMED 1924-12-21 09:00:00 NR 12.4879 120.629 main 31 31 __________P___ -1 12.4879 120.629 2 8 276
1924348N07139 1924 55 WP MM NOT_NAMED 1924-12-21 10:00:00 NR 12.5000 120.500 main 39 39 __________O___ -1 12.5000 120.500 2 7 275
1924348N07139 1924 55 WP MM NOT_NAMED 1924-12-21 12:00:00 NR 12.5222 120.260 main 58 68 __________P___ -1 12.5222 120.260 2 7 275
1924348N07139 1924 55 WP MM NOT_NAMED 1924-12-21 15:00:00 NR 12.5492 119.914 main 100 93 __________P___ -1 12.5492 119.914 2 7 274
1924348N07139 1924 55 WP MM NOT_NAMED 1924-12-21 18:00:00 NR 12.5717 119.572 main 117 117 __________P___ -1 12.5717 119.572 2 7 274
1924348N07139 1924 55 WP MM NOT_NAMED 1924-12-21 21:00:00 NR 12.5928 119.221 main 149 149 __________P___ -1 12.5928 119.221 2 7 274
1924348N07139 1924 55 WP MM NOT_NAMED 1924-12-21 22:00:00 NR 12.6000 119.100 main 151 151 __________O___ -1 12.6000 119.100 2 7 274
1924348N07139 1924 55 WP MM NOT_NAMED 1924-12-22 00:00:00 NR 12.6167 118.840 main 164 164 __________P___ -1 12.6167 118.840 2 8 274
1924348N07139 1924 55 WP MM NOT_NAMED 1924-12-22 03:00:00 NR 12.6417 118.436 main 188 188 __________P___ -1 12.6417 118.436 2 8 274
1924348N07139 1924 55 WP MM NOT_NAMED 1924-12-22 06:00:00 NR 12.6667 118.028 main 226 226 __________P___ -1 12.6667 118.028 2 8 274
1924348N07139 1924 55 WP MM NOT_NAMED 1924-12-22 09:00:00 NR 12.6917 117.629 main 258 258 __________P___ -1 12.6917 117.629 2 8 274
1924348N07139 1924 55 WP MM NOT_NAMED 1924-12-22 10:00:00 NR 12.7000 117.500 main 266 266 __________O___ -1 12.7000 117.500 2 8 274
1924348N07139 1924 55 WP MM NOT_NAMED 1924-12-22 12:00:00 NR 12.7166 117.245 main 292 292 __________P___ -1 12.7166 117.245 2 7 274
1924348N07139 1924 55 WP MM NOT_NAMED 1924-12-22 15:00:00 NR 12.7416 116.874 main 319 319 __________P___ -1 12.7416 116.874 2 7 274
1924348N07139 1924 55 WP MM NOT_NAMED 1924-12-22 18:00:00 NR 12.7666 116.524 main 362 362 __________P___ -1 12.7666 116.524 2 7 274
1924348N07139 1924 55 WP MM NOT_NAMED 1924-12-22 21:00:00 NR 12.7917 116.201 main 391 391 __________P___ -1 12.7917 116.201 2 6 275
1924348N07139 1924 55 WP MM NOT_NAMED 1924-12-22 22:00:00 NR 12.8000 116.100 main 401 401 __________O___ -1 12.8000 116.100 2 6 274
1924348N07139 1924 55 WP MM NOT_NAMED 1924-12-23 00:00:00 NR 12.8139 115.908 main 420 420 __________P___ -1 12.8139 115.908 2 5 274
1924348N07139 1924 55 WP MM NOT_NAMED 1924-12-23 03:00:00 NR 12.8348 115.645 main 450 450 __________P___ -1 12.8348 115.645 2 5 275
1924348N07139 1924 55 WP MM NOT_NAMED 1924-12-23 06:00:00 NR 12.8586 115.404 main 475 475 __________P___ -1 12.8586 115.404 2 5 277
1924348N07139 1924 55 WP MM NOT_NAMED 1924-12-23 09:00:00 NR 12.8883 115.175 main 495 495 __________P___ -1 12.8883 115.175 2 4 278
1924348N07139 1924 55 WP MM NOT_NAMED 1924-12-23 10:00:00 NR 12.9000 115.100 main 505 505 __________O___ -1 12.9000 115.100 2 4 280
1924348N07139 1924 55 WP MM NOT_NAMED 1924-12-23 12:00:00 NR 12.9266 114.950 main 514 521 __________P___ -1 12.9266 114.950 2 4 281
1924348N07139 1924 55 WP MM NOT_NAMED 1924-12-23 15:00:00 NR 12.9733 114.725 main 543 542 __________P___ -1 12.9733 114.725 2 5 283
1924348N07139 1924 55 WP MM NOT_NAMED 1924-12-23 18:00:00 NR 13.0256 114.500 main 542 520 __________P___ -1 13.0256 114.500 2 5 284
1924348N07139 1924 55 WP MM NOT_NAMED 1924-12-23 21:00:00 NR 13.0812 114.275 main 520 510 __________P___ -1 13.0812 114.275 2 5 284
1924348N07139 1924 55 WP MM NOT_NAMED 1924-12-23 22:00:00 NR 13.1000 114.200 main 510 __________O___ -1 13.1000 114.200 7 5 286

Digital Typhoon Data and Search

About IBTrACS Database

This database is a web-friendly format of International Best Track Archive for Climate Stewardship (IBTrACS), a global best track data archive curated by NOAA dating back to 1842.

Updated: 2021-10-21